sensor_id;sensor_type;location;lat;lon;timestamp;pressure;altitude;pressure_sealevel;temperature;humidity
20156;BME280;10238;49.556;10.956;2023-09-19T00:02:46;97866.91;;;15.05;100.00
20156;BME280;10238;49.556;10.956;2023-09-19T00:05:36;97872.25;;;15.05;100.00
20156;BME280;10238;49.556;10.956;2023-09-19T00:08:25;97871.63;;;15.03;100.00
20156;BME280;10238;49.556;10.956;2023-09-19T00:11:14;97872.19;;;14.99;100.00
20156;BME280;10238;49.556;10.956;2023-09-19T00:14:02;97884.13;;;14.96;100.00
20156;BME280;10238;49.556;10.956;2023-09-19T00:16:51;97884.06;;;14.90;100.00
20156;BME280;10238;49.556;10.956;2023-09-19T00:19:40;97882.41;;;14.89;100.00
20156;BME280;10238;49.556;10.956;2023-09-19T00:22:29;97895.13;;;14.87;100.00
20156;BME280;10238;49.556;10.956;2023-09-19T00:25:19;97890.00;;;14.85;100.00
20156;BME280;10238;49.556;10.956;2023-09-19T00:28:08;97891.41;;;14.81;100.00
20156;BME280;10238;49.556;10.956;2023-09-19T00:30:56;97885.63;;;14.78;100.00
20156;BME280;10238;49.556;10.956;2023-09-19T00:33:47;97888.03;;;14.73;100.00
20156;BME280;10238;49.556;10.956;2023-09-19T00:36:36;97902.63;;;14.70;100.00
20156;BME280;10238;49.556;10.956;2023-09-19T00:39:25;97893.94;;;14.68;100.00
20156;BME280;10238;49.556;10.956;2023-09-19T00:42:19;97905.03;;;14.65;100.00
20156;BME280;10238;49.556;10.956;2023-09-19T00:45:08;97907.91;;;14.64;100.00
20156;BME280;10238;49.556;10.956;2023-09-19T00:48:01;97908.47;;;14.59;100.00
20156;BME280;10238;49.556;10.956;2023-09-19T00:51:02;97907.66;;;14.59;100.00
20156;BME280;10238;49.556;10.956;2023-09-19T00:53:53;97907.19;;;14.55;100.00
20156;BME280;10238;49.556;10.956;2023-09-19T00:56:41;97905.94;;;14.51;100.00
20156;BME280;10238;49.556;10.956;2023-09-19T00:59:29;97916.16;;;14.48;100.00
20156;BME280;10238;49.556;10.956;2023-09-19T01:02:18;97915.38;;;14.47;100.00
20156;BME280;10238;49.556;10.956;2023-09-19T01:05:08;97915.09;;;14.42;100.00
20156;BME280;10238;49.556;10.956;2023-09-19T01:07:56;97908.28;;;14.40;100.00
20156;BME280;10238;49.556;10.956;2023-09-19T01:10:56;97923.03;;;14.36;100.00
20156;BME280;10238;49.556;10.956;2023-09-19T01:13:56;97917.88;;;14.34;100.00
20156;BME280;10238;49.556;10.956;2023-09-19T01:16:55;97924.44;;;14.32;100.00
20156;BME280;10238;49.556;10.956;2023-09-19T01:20:15;97931.00;;;14.29;100.00
20156;BME280;10238;49.556;10.956;2023-09-19T01:23:15;97929.34;;;14.28;100.00
20156;BME280;10238;49.556;10.956;2023-09-19T01:26:30;97935.25;;;14.24;100.00
20156;BME280;10238;49.556;10.956;2023-09-19T01:29:30;97934.56;;;14.22;100.00
20156;BME280;10238;49.556;10.956;2023-09-19T01:32:24;97940.94;;;14.21;100.00
20156;BME280;10238;49.556;10.956;2023-09-19T01:35:12;97943.09;;;14.25;100.00
20156;BME280;10238;49.556;10.956;2023-09-19T01:38:00;97943.97;;;14.32;100.00
20156;BME280;10238;49.556;10.956;2023-09-19T01:40:57;97948.97;;;14.35;100.00
20156;BME280;10238;49.556;10.956;2023-09-19T01:43:50;97943.22;;;14.38;100.00
20156;BME280;10238;49.556;10.956;2023-09-19T01:46:41;97955.56;;;14.39;100.00
20156;BME280;10238;49.556;10.956;2023-09-19T01:49:38;97955.94;;;14.36;100.00
20156;BME280;10238;49.556;10.956;2023-09-19T01:52:43;97950.03;;;14.41;100.00
20156;BME280;10238;49.556;10.956;2023-09-19T01:55:41;97953.56;;;14.41;100.00
20156;BME280;10238;49.556;10.956;2023-09-19T01:58:38;97951.97;;;14.47;100.00
20156;BME280;10238;49.556;10.956;2023-09-19T02:01:29;97946.66;;;14.53;100.00
20156;BME280;10238;49.556;10.956;2023-09-19T02:04:18;97945.03;;;14.52;100.00
20156;BME280;10238;49.556;10.956;2023-09-19T02:07:07;97957.38;;;14.53;100.00
20156;BME280;10238;49.556;10.956;2023-09-19T02:09:55;97948.78;;;14.58;100.00
20156;BME280;10238;49.556;10.956;2023-09-19T02:12:43;97949.81;;;14.57;100.00
20156;BME280;10238;49.556;10.956;2023-09-19T02:15:31;97964.16;;;14.70;100.00
20156;BME280;10238;49.556;10.956;2023-09-19T02:18:20;97961.72;;;14.75;100.00
20156;BME280;10238;49.556;10.956;2023-09-19T02:21:08;97972.31;;;14.83;100.00
20156;BME280;10238;49.556;10.956;2023-09-19T02:24:00;97972.97;;;14.85;100.00
20156;BME280;10238;49.556;10.956;2023-09-19T02:26:49;97981.75;;;14.79;100.00
20156;BME280;10238;49.556;10.956;2023-09-19T02:29:36;97987.34;;;14.84;100.00
20156;BME280;10238;49.556;10.956;2023-09-19T02:32:24;97983.69;;;14.85;100.00
20156;BME280;10238;49.556;10.956;2023-09-19T02:35:16;97982.47;;;14.88;100.00
20156;BME280;10238;49.556;10.956;2023-09-19T02:38:06;97982.84;;;14.85;100.00
20156;BME280;10238;49.556;10.956;2023-09-19T02:40:59;97988.38;;;14.83;100.00
20156;BME280;10238;49.556;10.956;2023-09-19T02:43:47;97988.38;;;14.83;100.00
20156;BME280;10238;49.556;10.956;2023-09-19T02:46:35;97981.38;;;14.82;100.00
20156;BME280;10238;49.556;10.956;2023-09-19T02:49:23;97979.50;;;14.83;100.00
20156;BME280;10238;49.556;10.956;2023-09-19T02:52:11;97987.63;;;14.89;100.00
20156;BME280;10238;49.556;10.956;2023-09-19T02:55:01;97985.81;;;14.96;100.00
20156;BME280;10238;49.556;10.956;2023-09-19T02:57:53;97981.38;;;15.03;100.00
20156;BME280;10238;49.556;10.956;2023-09-19T03:00:42;97973.97;;;15.05;100.00
20156;BME280;10238;49.556;10.956;2023-09-19T03:03:33;97974.47;;;15.15;100.00
20156;BME280;10238;49.556;10.956;2023-09-19T03:06:21;97970.38;;;15.19;100.00
20156;BME280;10238;49.556;10.956;2023-09-19T03:09:10;97974.75;;;15.21;100.00
20156;BME280;10238;49.556;10.956;2023-09-19T03:11:58;97973.72;;;15.22;100.00
20156;BME280;10238;49.556;10.956;2023-09-19T03:14:48;97973.31;;;15.25;100.00
20156;BME280;10238;49.556;10.956;2023-09-19T03:17:37;97975.34;;;15.23;100.00
20156;BME280;10238;49.556;10.956;2023-09-19T03:20:25;97976.63;;;15.27;100.00
20156;BME280;10238;49.556;10.956;2023-09-19T03:23:13;97977.47;;;15.27;100.00
20156;BME280;10238;49.556;10.956;2023-09-19T03:26:01;97981.97;;;15.27;100.00
20156;BME280;10238;49.556;10.956;2023-09-19T03:28:51;97972.50;;;15.24;100.00
20156;BME280;10238;49.556;10.956;2023-09-19T03:31:41;97977.47;;;15.27;100.00
20156;BME280;10238;49.556;10.956;2023-09-19T03:34:28;97979.28;;;15.27;100.00
20156;BME280;10238;49.556;10.956;2023-09-19T03:37:16;97982.16;;;15.25;100.00
20156;BME280;10238;49.556;10.956;2023-09-19T03:40:05;97985.69;;;15.26;100.00
20156;BME280;10238;49.556;10.956;2023-09-19T03:42:54;97987.34;;;15.27;100.00
20156;BME280;10238;49.556;10.956;2023-09-19T03:45:42;97984.03;;;15.25;100.00
20156;BME280;10238;49.556;10.956;2023-09-19T03:48:32;97991.44;;;15.23;100.00
20156;BME280;10238;49.556;10.956;2023-09-19T03:51:20;97991.44;;;15.23;100.00
20156;BME280;10238;49.556;10.956;2023-09-19T03:54:08;97991.03;;;15.26;100.00
20156;BME280;10238;49.556;10.956;2023-09-19T03:56:56;97985.88;;;15.24;100.00
20156;BME280;10238;49.556;10.956;2023-09-19T03:59:44;97989.41;;;15.25;100.00
20156;BME280;10238;49.556;10.956;2023-09-19T04:02:32;97996.78;;;15.23;100.00
20156;BME280;10238;49.556;10.956;2023-09-19T04:05:21;97991.44;;;15.23;100.00
20156;BME280;10238;49.556;10.956;2023-09-19T04:08:09;97998.84;;;15.21;100.00
20156;BME280;10238;49.556;10.956;2023-09-19T04:10:57;98008.53;;;15.22;100.00
20156;BME280;10238;49.556;10.956;2023-09-19T04:13:45;98012.22;;;15.21;100.00
20156;BME280;10238;49.556;10.956;2023-09-19T04:16:32;98010.75;;;15.18;100.00
20156;BME280;10238;49.556;10.956;2023-09-19T04:19:20;98018.34;;;15.14;100.00
20156;BME280;10238;49.556;10.956;2023-09-19T04:22:11;98016.94;;;15.18;100.00
20156;BME280;10238;49.556;10.956;2023-09-19T04:24:59;98027.28;;;15.22;100.00
20156;BME280;10238;49.556;10.956;2023-09-19T04:27:47;98028.91;;;15.23;100.00
20156;BME280;10238;49.556;10.956;2023-09-19T04:30:34;98031.78;;;15.21;100.00
20156;BME280;10238;49.556;10.956;2023-09-19T04:33:22;98030.56;;;15.23;100.00
20156;BME280;10238;49.556;10.956;2023-09-19T04:36:09;98025.47;;;15.29;100.00
20156;BME280;10238;49.556;10.956;2023-09-19T04:39:20;98034.16;;;15.31;100.00
20156;BME280;10238;49.556;10.956;2023-09-19T04:42:12;98033.13;;;15.32;100.00
20156;BME280;10238;49.556;10.956;2023-09-19T04:45:01;98027.78;;;15.32;100.00
20156;BME280;10238;49.556;10.956;2023-09-19T04:47:50;98024.06;;;15.33;100.00
20156;BME280;10238;49.556;10.956;2023-09-19T04:50:37;98032.19;;;15.39;100.00
20156;BME280;10238;49.556;10.956;2023-09-19T04:53:25;98032.63;;;15.43;100.00
20156;BME280;10238;49.556;10.956;2023-09-19T04:56:15;98039.28;;;15.47;100.00
20156;BME280;10238;49.556;10.956;2023-09-19T04:59:03;98049.34;;;15.45;100.00
20156;BME280;10238;49.556;10.956;2023-09-19T05:01:51;98043.34;;;15.43;100.00
20156;BME280;10238;49.556;10.956;2023-09-19T05:04:39;98048.69;;;15.43;100.00
20156;BME280;10238;49.556;10.956;2023-09-19T05:07:26;98057.16;;;15.40;100.00
20156;BME280;10238;49.556;10.956;2023-09-19T05:10:14;98054.25;;;15.41;100.00
20156;BME280;10238;49.556;10.956;2023-09-19T05:13:03;98056.72;;;15.43;100.00
20156;BME280;10238;49.556;10.956;2023-09-19T05:15:51;98055.97;;;15.49;100.00
20156;BME280;10238;49.556;10.956;2023-09-19T05:18:42;98060.13;;;15.51;100.00
20156;BME280;10238;49.556;10.956;2023-09-19T05:21:30;98063.03;;;15.56;100.00
20156;BME280;10238;49.556;10.956;2023-09-19T05:24:19;98056.06;;;15.62;100.00
20156;BME280;10238;49.556;10.956;2023-09-19T05:27:09;98063.91;;;15.63;100.00
20156;BME280;10238;49.556;10.956;2023-09-19T05:29:59;98066.41;;;15.65;100.00
20156;BME280;10238;49.556;10.956;2023-09-19T05:32:47;98061.97;;;15.72;100.00
20156;BME280;10238;49.556;10.956;2023-09-19T05:35:35;98066.94;;;15.75;100.00
20156;BME280;10238;49.556;10.956;2023-09-19T05:38:28;98068.59;;;15.76;100.00
20156;BME280;10238;49.556;10.956;2023-09-19T05:41:15;98068.38;;;15.77;100.00
20156;BME280;10238;49.556;10.956;2023-09-19T05:44:05;98078.34;;;15.83;100.00
20156;BME280;10238;49.556;10.956;2023-09-19T05:46:56;98086.22;;;15.91;100.00
20156;BME280;10238;49.556;10.956;2023-09-19T05:49:44;98084.81;;;15.95;100.00
20156;BME280;10238;49.556;10.956;2023-09-19T05:52:34;98085.06;;;16.00;100.00
20156;BME280;10238;49.556;10.956;2023-09-19T05:55:21;98091.47;;;16.06;100.00
20156;BME280;10238;49.556;10.956;2023-09-19T05:58:11;98076.22;;;16.06;100.00
20156;BME280;10238;49.556;10.956;2023-09-19T06:01:00;98086.38;;;16.11;100.00
20156;BME280;10238;49.556;10.956;2023-09-19T06:03:49;98086.59;;;16.16;100.00
20156;BME280;10238;49.556;10.956;2023-09-19T06:06:37;98095.28;;;16.18;100.00
20156;BME280;10238;49.556;10.956;2023-09-19T06:09:26;98101.91;;;16.22;100.00
20156;BME280;10238;49.556;10.956;2023-09-19T06:12:15;98105.22;;;16.24;100.00
20156;BME280;10238;49.556;10.956;2023-09-19T06:15:04;98108.94;;;16.23;100.00
20156;BME280;10238;49.556;10.956;2023-09-19T06:17:55;98108.94;;;16.23;100.00
20156;BME280;10238;49.556;10.956;2023-09-19T06:20:46;98119.28;;;16.26;100.00
20156;BME280;10238;49.556;10.956;2023-09-19T06:23:34;98112.50;;;16.30;100.00
20156;BME280;10238;49.556;10.956;2023-09-19T06:26:22;98118.47;;;16.32;100.00
20156;BME280;10238;49.556;10.956;2023-09-19T06:29:09;98111.91;;;16.34;100.00
20156;BME280;10238;49.556;10.956;2023-09-19T06:31:57;98121.81;;;16.34;100.00
20156;BME280;10238;49.556;10.956;2023-09-19T06:34:45;98114.19;;;16.37;100.00
20156;BME280;10238;49.556;10.956;2023-09-19T06:37:34;98118.97;;;16.42;100.00
20156;BME280;10238;49.556;10.956;2023-09-19T06:40:22;98123.56;;;16.48;100.00
20156;BME280;10238;49.556;10.956;2023-09-19T06:43:10;98123.03;;;16.59;100.00
20156;BME280;10238;49.556;10.956;2023-09-19T06:45:58;98122.44;;;16.70;100.00
20156;BME280;10238;49.556;10.956;2023-09-19T06:48:46;98134.47;;;16.74;100.00
20156;BME280;10238;49.556;10.956;2023-09-19T06:51:36;98129.50;;;16.77;100.00
20156;BME280;10238;49.556;10.956;2023-09-19T06:54:25;98138.63;;;16.83;100.00
20156;BME280;10238;49.556;10.956;2023-09-19T06:57:17;98139.91;;;16.87;100.00
20156;BME280;10238;49.556;10.956;2023-09-19T07:00:07;98136.00;;;16.89;100.00
20156;BME280;10238;49.556;10.956;2023-09-19T07:03:05;98138.28;;;16.92;100.00
20156;BME280;10238;49.556;10.956;2023-09-19T07:05:55;98138.50;;;16.97;100.00
20156;BME280;10238;49.556;10.956;2023-09-19T07:08:45;98145.34;;;17.00;100.00
20156;BME280;10238;49.556;10.956;2023-09-19T07:11:33;98145.16;;;17.08;100.00
20156;BME280;10238;49.556;10.956;2023-09-19T07:14:21;98140.00;;;17.13;100.00
20156;BME280;10238;49.556;10.956;2023-09-19T07:17:09;98135.50;;;17.20;100.00
20156;BME280;10238;49.556;10.956;2023-09-19T07:19:56;98143.38;;;17.28;100.00
20156;BME280;10238;49.556;10.956;2023-09-19T07:22:45;98143.19;;;17.36;100.00
20156;BME280;10238;49.556;10.956;2023-09-19T07:25:36;98143.41;;;17.41;100.00
20156;BME280;10238;49.556;10.956;2023-09-19T07:28:25;98139.69;;;17.42;100.00
20156;BME280;10238;49.556;10.956;2023-09-19T07:31:13;98141.75;;;17.40;100.00
20156;BME280;10238;49.556;10.956;2023-09-19T07:34:01;98143.81;;;17.38;100.00
20156;BME280;10238;49.556;10.956;2023-09-19T07:36:50;98148.75;;;17.35;100.00
20156;BME280;10238;49.556;10.956;2023-09-19T07:39:38;98146.06;;;17.35;100.00
20156;BME280;10238;49.556;10.956;2023-09-19T07:42:27;98156.00;;;17.41;100.00
20156;BME280;10238;49.556;10.956;2023-09-19T07:45:16;98155.03;;;17.48;100.00
20156;BME280;10238;49.556;10.956;2023-09-19T07:48:05;98158.78;;;17.60;100.00
20156;BME280;10238;49.556;10.956;2023-09-19T07:51:02;98149.72;;;17.74;100.00
20156;BME280;10238;49.556;10.956;2023-09-19T07:53:51;98156.16;;;17.86;100.00
20156;BME280;10238;49.556;10.956;2023-09-19T07:56:38;98145.81;;;17.96;100.00
20156;BME280;10238;49.556;10.956;2023-09-19T07:59:26;98142.28;;;18.02;100.00
20156;BME280;10238;49.556;10.956;2023-09-19T08:02:15;98139.00;;;18.07;100.00
20156;BME280;10238;49.556;10.956;2023-09-19T08:06:30;98145.81;;;18.09;100.00
20156;BME280;10238;49.556;10.956;2023-09-19T08:09:18;98146.84;;;18.08;100.00
20156;BME280;10238;49.556;10.956;2023-09-19T08:12:11;98158.63;;;18.07;100.00
20156;BME280;10238;49.556;10.956;2023-09-19T08:14:58;98168.38;;;18.08;100.00
20156;BME280;10238;49.556;10.956;2023-09-19T08:17:47;98163.78;;;18.09;100.00
20156;BME280;10238;49.556;10.956;2023-09-19T08:20:35;98156.16;;;18.12;100.00
20156;BME280;10238;49.556;10.956;2023-09-19T08:23:26;98161.34;;;18.20;100.00
20156;BME280;10238;49.556;10.956;2023-09-19T08:26:14;98159.88;;;18.31;100.00
20156;BME280;10238;49.556;10.956;2023-09-19T08:29:01;98156.38;;;18.43;100.00
20156;BME280;10238;49.556;10.956;2023-09-19T08:31:55;98161.53;;;18.51;100.00
20156;BME280;10238;49.556;10.956;2023-09-19T08:34:43;98158.81;;;18.64;100.00
20156;BME280;10238;49.556;10.956;2023-09-19T08:37:31;98170.59;;;18.76;100.00
20156;BME280;10238;49.556;10.956;2023-09-19T08:40:20;98165.44;;;18.81;100.00
20156;BME280;10238;49.556;10.956;2023-09-19T08:43:08;98179.69;;;18.88;100.00
20156;BME280;10238;49.556;10.956;2023-09-19T08:46:06;98177.81;;;19.02;100.00
20156;BME280;10238;49.556;10.956;2023-09-19T08:49:04;98182.53;;;19.13;100.00
20156;BME280;10238;49.556;10.956;2023-09-19T08:52:01;98174.00;;;19.29;100.00
20156;BME280;10238;49.556;10.956;2023-09-19T08:54:52;98174.13;;;19.41;100.00
20156;BME280;10238;49.556;10.956;2023-09-19T08:57:45;98169.94;;;19.51;100.00
20156;BME280;10238;49.556;10.956;2023-09-19T09:00:36;98176.09;;;19.65;100.00
20156;BME280;10238;49.556;10.956;2023-09-19T09:03:33;98173.78;;;19.68;100.00
20156;BME280;10238;49.556;10.956;2023-09-19T09:06:23;98173.00;;;19.61;100.00
20156;BME280;10238;49.556;10.956;2023-09-19T09:09:11;98176.53;;;19.62;100.00
20156;BME280;10238;49.556;10.956;2023-09-19T09:12:00;98177.78;;;19.59;100.00
20156;BME280;10238;49.556;10.956;2023-09-19T09:14:50;98178.44;;;19.55;100.00
20156;BME280;10238;49.556;10.956;2023-09-19T09:17:39;98187.56;;;19.54;100.00
20156;BME280;10238;49.556;10.956;2023-09-19T09:20:29;98186.69;;;19.60;100.00
20156;BME280;10238;49.556;10.956;2023-09-19T09:23:16;98186.97;;;19.83;100.00
20156;BME280;10238;49.556;10.956;2023-09-19T09:26:05;98189.41;;;19.91;100.00
20156;BME280;10238;49.556;10.956;2023-09-19T09:28:53;98190.28;;;19.85;100.00
20156;BME280;10238;49.556;10.956;2023-09-19T09:31:43;98192.56;;;19.88;100.00
20156;BME280;10238;49.556;10.956;2023-09-19T09:34:33;98195.22;;;19.94;100.00
20156;BME280;10238;49.556;10.956;2023-09-19T09:37:22;98192.66;;;20.06;100.00
20156;BME280;10238;49.556;10.956;2023-09-19T09:40:11;98186.34;;;20.18;100.00
20156;BME280;10238;49.556;10.956;2023-09-19T09:43:32;98198.75;;;20.26;100.00
20156;BME280;10238;49.556;10.956;2023-09-19T09:46:26;98190.44;;;20.27;100.00
20156;BME280;10238;49.556;10.956;2023-09-19T09:49:33;98192.38;;;20.20;100.00
20156;BME280;10238;49.556;10.956;2023-09-19T09:52:22;98195.88;;;20.21;100.00
20156;BME280;10238;49.556;10.956;2023-09-19T09:55:11;98188.38;;;20.23;100.00
20156;BME280;10238;49.556;10.956;2023-09-19T09:58:17;98195.84;;;20.27;100.00
20156;BME280;10238;49.556;10.956;2023-09-19T10:01:05;98191.59;;;20.38;100.00
20156;BME280;10238;49.556;10.956;2023-09-19T10:03:58;98196.03;;;20.50;100.00
20156;BME280;10238;49.556;10.956;2023-09-19T10:06:48;98186.34;;;20.67;100.00
20156;BME280;10238;49.556;10.956;2023-09-19T10:09:45;98189.06;;;20.67;100.00
20156;BME280;10238;49.556;10.956;2023-09-19T10:12:33;98179.97;;;20.80;100.00
20156;BME280;10238;49.556;10.956;2023-09-19T10:15:31;98180.63;;;21.00;100.00
20156;BME280;10238;49.556;10.956;2023-09-19T10:18:21;98176.03;;;21.00;100.00
20156;BME280;10238;49.556;10.956;2023-09-19T10:21:10;98162.53;;;21.18;100.00
20156;BME280;10238;49.556;10.956;2023-09-19T10:24:02;98166.03;;;21.37;100.00
20156;BME280;10238;49.556;10.956;2023-09-19T10:26:55;98175.03;;;21.49;100.00
20156;BME280;10238;49.556;10.956;2023-09-19T10:29:49;98173.50;;;21.71;100.00
20156;BME280;10238;49.556;10.956;2023-09-19T10:32:41;98172.44;;;21.72;100.00
20156;BME280;10238;49.556;10.956;2023-09-19T10:35:30;98176.75;;;21.91;100.00
20156;BME280;10238;49.556;10.956;2023-09-19T10:38:23;98167.72;;;21.97;100.00
20156;BME280;10238;49.556;10.956;2023-09-19T10:41:16;98180.09;;;22.05;100.00
20156;BME280;10238;49.556;10.956;2023-09-19T10:44:10;98174.56;;;22.11;100.00
20156;BME280;10238;49.556;10.956;2023-09-19T10:46:58;98179.78;;;22.24;100.00
20156;BME280;10238;49.556;10.956;2023-09-19T10:49:47;98181.69;;;22.35;100.00
20156;BME280;10238;49.556;10.956;2023-09-19T10:52:40;98178.16;;;22.46;100.00
20156;BME280;10238;49.556;10.956;2023-09-19T10:55:31;98181.03;;;22.51;100.00
20156;BME280;10238;49.556;10.956;2023-09-19T10:58:28;98187.00;;;22.42;100.00
20156;BME280;10238;49.556;10.956;2023-09-19T11:01:16;98179.56;;;22.37;100.00
20156;BME280;10238;49.556;10.956;2023-09-19T11:04:29;98184.06;;;22.43;100.00
20156;BME280;10238;49.556;10.956;2023-09-19T11:07:18;98178.06;;;22.41;100.00
20156;BME280;10238;49.556;10.956;2023-09-19T11:10:06;98174.50;;;22.29;100.00
20156;BME280;10238;49.556;10.956;2023-09-19T11:12:57;98169.94;;;22.41;100.00
20156;BME280;10238;49.556;10.956;2023-09-19T11:16:19;98162.06;;;22.63;100.00
20156;BME280;10238;49.556;10.956;2023-09-19T11:19:08;98159.50;;;22.79;100.00
20156;BME280;10238;49.556;10.956;2023-09-19T11:21:57;98155.31;;;22.88;99.32
20156;BME280;10238;49.556;10.956;2023-09-19T11:24:45;98154.16;;;22.96;99.44
20156;BME280;10238;49.556;10.956;2023-09-19T11:27:33;98154.44;;;23.22;100.00
20156;BME280;10238;49.556;10.956;2023-09-19T11:30:27;98141.72;;;23.35;96.70
20156;BME280;10238;49.556;10.956;2023-09-19T11:33:19;98139.19;;;23.45;98.42
20156;BME280;10238;49.556;10.956;2023-09-19T11:36:11;98140.22;;;23.55;97.46
20156;BME280;10238;49.556;10.956;2023-09-19T11:39:01;98139.50;;;23.60;100.00
20156;BME280;10238;49.556;10.956;2023-09-19T11:41:54;98144.06;;;23.31;97.67
20156;BME280;10238;49.556;10.956;2023-09-19T11:44:42;98139.97;;;23.28;92.86
20156;BME280;10238;49.556;10.956;2023-09-19T11:47:30;98136.31;;;23.23;93.99
20156;BME280;10238;49.556;10.956;2023-09-19T11:50:24;98140.84;;;23.46;96.90
20156;BME280;10238;49.556;10.956;2023-09-19T11:53:13;98138.19;;;23.62;92.64
20156;BME280;10238;49.556;10.956;2023-09-19T11:56:06;98129.19;;;23.45;91.09
20156;BME280;10238;49.556;10.956;2023-09-19T11:58:57;98136.97;;;23.42;92.93
20156;BME280;10238;49.556;10.956;2023-09-19T12:01:51;98132.81;;;23.51;89.88
20156;BME280;10238;49.556;10.956;2023-09-19T12:04:44;98129.91;;;23.69;91.26
20156;BME280;10238;49.556;10.956;2023-09-19T12:07:44;98141.03;;;23.84;89.65
20156;BME280;10238;49.556;10.956;2023-09-19T12:10:45;98145.97;;;23.87;87.23
20156;BME280;10238;49.556;10.956;2023-09-19T12:13:33;98133.13;;;23.82;83.41
20156;BME280;10238;49.556;10.956;2023-09-19T12:16:21;98137.81;;;23.87;79.93
20156;BME280;10238;49.556;10.956;2023-09-19T12:19:20;98124.59;;;23.90;79.10
20156;BME280;10238;49.556;10.956;2023-09-19T12:22:09;98129.63;;;23.98;81.69
20156;BME280;10238;49.556;10.956;2023-09-19T12:25:06;98136.09;;;24.25;80.24
20156;BME280;10238;49.556;10.956;2023-09-19T12:27:55;98125.78;;;24.44;79.49
20156;BME280;10238;49.556;10.956;2023-09-19T12:30:44;98117.56;;;24.39;77.86
20156;BME280;10238;49.556;10.956;2023-09-19T12:33:32;98121.34;;;24.38;75.85
20156;BME280;10238;49.556;10.956;2023-09-19T12:36:21;98116.50;;;24.40;76.04
20156;BME280;10238;49.556;10.956;2023-09-19T12:39:24;98123.22;;;24.54;76.07
20156;BME280;10238;49.556;10.956;2023-09-19T12:42:14;98125.44;;;24.57;74.83
20156;BME280;10238;49.556;10.956;2023-09-19T12:45:07;98114.84;;;24.39;75.04
20156;BME280;10238;49.556;10.956;2023-09-19T12:48:18;98114.53;;;24.35;76.44
20156;BME280;10238;49.556;10.956;2023-09-19T12:51:10;98102.81;;;24.51;77.02
20156;BME280;10238;49.556;10.956;2023-09-19T12:53:59;98113.00;;;24.61;75.80
20156;BME280;10238;49.556;10.956;2023-09-19T12:56:49;98105.53;;;24.68;74.56
20156;BME280;10238;49.556;10.956;2023-09-19T12:59:38;98106.91;;;24.87;74.24
20156;BME280;10238;49.556;10.956;2023-09-19T13:02:26;98111.66;;;24.80;71.17
20156;BME280;10238;49.556;10.956;2023-09-19T13:05:15;98097.88;;;24.65;71.32
20156;BME280;10238;49.556;10.956;2023-09-19T13:08:18;98106.59;;;24.67;72.50
20156;BME280;10238;49.556;10.956;2023-09-19T13:11:10;98099.03;;;24.69;70.23
20156;BME280;10238;49.556;10.956;2023-09-19T13:14:18;98099.97;;;24.79;72.37
20156;BME280;10238;49.556;10.956;2023-09-19T13:17:09;98095.09;;;24.81;68.84
20156;BME280;10238;49.556;10.956;2023-09-19T13:20:03;98095.22;;;24.70;70.06
20156;BME280;10238;49.556;10.956;2023-09-19T13:22:54;98086.63;;;24.78;69.72
20156;BME280;10238;49.556;10.956;2023-09-19T13:25:45;98098.59;;;24.77;70.55
20156;BME280;10238;49.556;10.956;2023-09-19T13:28:34;98096.00;;;24.87;70.90
20156;BME280;10238;49.556;10.956;2023-09-19T13:31:22;98088.59;;;24.82;70.86
20156;BME280;10238;49.556;10.956;2023-09-19T13:34:11;98092.66;;;24.63;65.21
20156;BME280;10238;49.556;10.956;2023-09-19T13:37:02;98089.31;;;24.56;69.38
20156;BME280;10238;49.556;10.956;2023-09-19T13:39:51;98096.69;;;24.61;69.85
20156;BME280;10238;49.556;10.956;2023-09-19T13:42:39;98091.63;;;24.86;71.16
20156;BME280;10238;49.556;10.956;2023-09-19T13:45:27;98092.78;;;25.11;68.46
20156;BME280;10238;49.556;10.956;2023-09-19T13:48:17;98094.47;;;24.96;68.22
20156;BME280;10238;49.556;10.956;2023-09-19T13:51:10;98103.19;;;24.60;69.10
20156;BME280;10238;49.556;10.956;2023-09-19T13:53:58;98093.44;;;24.26;71.34
20156;BME280;10238;49.556;10.956;2023-09-19T13:56:46;98092.13;;;24.28;73.51
20156;BME280;10238;49.556;10.956;2023-09-19T13:59:33;98091.38;;;24.16;70.15
20156;BME280;10238;49.556;10.956;2023-09-19T14:02:21;98088.47;;;23.90;72.77
20156;BME280;10238;49.556;10.956;2023-09-19T14:05:10;98093.59;;;24.03;75.59
20156;BME280;10238;49.556;10.956;2023-09-19T14:08:00;98094.34;;;23.98;70.58
20156;BME280;10238;49.556;10.956;2023-09-19T14:10:50;98090.25;;;23.68;71.23
20156;BME280;10238;49.556;10.956;2023-09-19T14:13:38;98098.78;;;23.60;72.60
20156;BME280;10238;49.556;10.956;2023-09-19T14:16:26;98090.28;;;23.84;72.34
20156;BME280;10238;49.556;10.956;2023-09-19T14:19:16;98089.84;;;23.76;70.51
20156;BME280;10238;49.556;10.956;2023-09-19T14:22:04;98086.97;;;23.66;73.28
20156;BME280;10238;49.556;10.956;2023-09-19T14:24:56;98091.81;;;23.64;73.86
20156;BME280;10238;49.556;10.956;2023-09-19T14:27:47;98093.25;;;23.55;75.99
20156;BME280;10238;49.556;10.956;2023-09-19T14:30:35;98093.72;;;23.80;75.54
20156;BME280;10238;49.556;10.956;2023-09-19T14:33:23;98086.81;;;23.89;72.65
20156;BME280;10238;49.556;10.956;2023-09-19T14:36:11;98090.34;;;23.89;72.84
20156;BME280;10238;49.556;10.956;2023-09-19T14:39:00;98068.84;;;23.99;75.06
20156;BME280;10238;49.556;10.956;2023-09-19T14:41:50;98082.72;;;23.86;75.02
20156;BME280;10238;49.556;10.956;2023-09-19T14:44:38;98075.47;;;24.08;78.01
20156;BME280;10238;49.556;10.956;2023-09-19T14:47:25;98064.63;;;24.41;75.53